createdAt,value
2018-08-25T00:01:11.976Z,97.60
2018-08-25T00:03:40.355Z,97.60
2018-08-25T00:06:08.663Z,98.20
2018-08-25T00:08:37.904Z,98.40
2018-08-25T00:11:06.808Z,97.80
2018-08-25T00:13:35.155Z,97.50
2018-08-25T00:16:03.499Z,97.60
2018-08-25T00:18:31.887Z,98.20
2018-08-25T00:21:00.272Z,98.30
2018-08-25T00:23:28.598Z,99.40
2018-08-25T00:25:56.889Z,98.60
2018-08-25T00:28:25.254Z,98.70
2018-08-25T00:30:59.076Z,99.60
2018-08-25T00:33:27.476Z,99.90
2018-08-25T00:35:55.963Z,99.30
2018-08-25T00:38:24.303Z,99.10
2018-08-25T00:40:52.569Z,98.90
2018-08-25T00:43:20.881Z,98.40
2018-08-25T00:45:49.323Z,98.90
2018-08-25T00:48:17.674Z,98.60
2018-08-25T00:50:46.027Z,98.70
2018-08-25T00:53:14.500Z,98.70
2018-08-25T00:55:42.826Z,98.90
2018-08-25T00:58:11.249Z,99.30
2018-08-25T01:00:39.593Z,99.10
2018-08-25T01:03:07.924Z,99.20
2018-08-25T01:05:36.260Z,98.90
2018-08-25T01:08:05.072Z,98.80
2018-08-25T01:10:33.685Z,98.90
2018-08-25T01:13:02.320Z,99.10
2018-08-25T01:15:30.713Z,99.00
2018-08-25T01:17:59.037Z,99.30
2018-08-25T01:20:27.400Z,99.50
2018-08-25T01:22:55.778Z,99.40
2018-08-25T01:25:24.350Z,99.40
2018-08-25T01:27:53.296Z,99.70
2018-08-25T01:30:21.624Z,99.70
2018-08-25T01:32:49.992Z,99.80
2018-08-25T01:35:18.313Z,99.50
2018-08-25T01:37:46.667Z,99.70
2018-08-25T01:40:15.037Z,99.90
2018-08-25T01:42:43.358Z,99.90
2018-08-25T01:45:11.735Z,99.80
2018-08-25T01:47:40.106Z,99.90
2018-08-25T01:50:08.724Z,99.90
2018-08-25T01:52:37.083Z,99.90
2018-08-25T01:55:05.562Z,99.90
2018-08-25T01:57:33.962Z,99.90
2018-08-25T02:00:02.296Z,99.80
2018-08-25T02:02:30.704Z,99.90
2018-08-25T02:04:59.091Z,99.90
2018-08-25T02:07:27.459Z,99.90
2018-08-25T02:09:55.852Z,99.90
2018-08-25T02:12:24.272Z,99.90
2018-08-25T02:14:52.649Z,99.90
2018-08-25T02:17:21.070Z,99.90
2018-08-25T02:19:49.440Z,99.90
2018-08-25T02:22:17.760Z,99.90
2018-08-25T02:24:46.087Z,99.90
2018-08-25T02:27:14.434Z,99.90
2018-08-25T02:29:42.756Z,99.80
2018-08-25T02:32:11.108Z,99.90
2018-08-25T02:34:39.453Z,99.90
2018-08-25T02:37:07.799Z,99.90
2018-08-25T02:39:36.141Z,99.90
2018-08-25T02:42:04.479Z,99.90
2018-08-25T02:44:32.827Z,99.90
2018-08-25T02:47:01.199Z,99.90
2018-08-25T02:49:29.514Z,99.80
2018-08-25T02:51:58.001Z,99.60
2018-08-25T02:54:26.339Z,99.20
2018-08-25T02:56:54.667Z,99.20
2018-08-25T02:59:23.031Z,99.20
2018-08-25T03:01:51.425Z,99.40
2018-08-25T03:04:19.753Z,99.30
2018-08-25T03:06:48.063Z,99.30
2018-08-25T03:09:16.465Z,99.50
2018-08-25T03:11:44.775Z,99.20
2018-08-25T03:14:13.220Z,99.50
2018-08-25T03:16:41.547Z,99.80
2018-08-25T03:19:09.862Z,99.30
2018-08-25T03:21:38.212Z,99.50
2018-08-25T03:24:06.584Z,99.50
2018-08-25T03:26:34.951Z,99.60
2018-08-25T03:29:03.304Z,99.80
2018-08-25T03:31:31.666Z,99.60
2018-08-25T03:33:59.991Z,99.50
2018-08-25T03:36:28.315Z,99.60
2018-08-25T03:38:56.620Z,99.70
2018-08-25T03:41:24.972Z,99.90
2018-08-25T03:43:53.308Z,99.90
2018-08-25T03:46:21.653Z,99.60
2018-08-25T03:48:50.052Z,99.80
2018-08-25T03:51:18.393Z,99.90
2018-08-25T03:53:46.719Z,99.90
2018-08-25T03:56:15.021Z,99.90
2018-08-25T03:58:43.332Z,99.80
2018-08-25T04:01:11.672Z,98.80
2018-08-25T04:03:40.011Z,98.30
2018-08-25T04:06:08.328Z,98.80
2018-08-25T04:08:36.681Z,98.30
2018-08-25T04:11:04.947Z,98.60
2018-08-25T04:13:33.319Z,98.30
2018-08-25T04:16:01.725Z,98.20
2018-08-25T04:18:30.091Z,99.10
2018-08-25T04:20:58.411Z,99.30
2018-08-25T04:23:26.884Z,98.60
2018-08-25T04:25:55.260Z,98.30
2018-08-25T04:28:23.675Z,99.00
2018-08-25T04:30:51.968Z,99.00
2018-08-25T04:33:20.399Z,98.40
2018-08-25T04:35:48.623Z,98.70
2018-08-25T04:38:16.988Z,98.90
2018-08-25T04:40:45.329Z,99.00
2018-08-25T04:46:05.239Z,98.50
2018-08-25T04:48:33.607Z,98.00
2018-08-25T04:51:01.941Z,98.90
2018-08-25T04:53:30.302Z,99.40
2018-08-25T04:55:58.781Z,99.80
2018-08-25T04:58:31.009Z,99.70
2018-08-25T05:00:59.393Z,99.50
2018-08-25T05:03:27.863Z,99.40
2018-08-25T05:05:56.217Z,99.70
2018-08-25T05:08:24.563Z,99.20
2018-08-25T05:10:52.874Z,99.10
2018-08-25T05:13:21.214Z,99.30
2018-08-25T05:15:49.552Z,99.60
2018-08-25T05:18:17.919Z,99.30
2018-08-25T05:20:46.228Z,99.30
2018-08-25T05:23:14.644Z,99.50
2018-08-25T05:25:43.058Z,99.30
2018-08-25T05:28:11.441Z,99.40
2018-08-25T05:30:52.133Z,99.60
2018-08-25T05:33:31.536Z,99.90
2018-08-25T05:38:49.762Z,99.40
2018-08-25T05:41:18.228Z,98.50
2018-08-25T05:43:47.490Z,99.10
2018-08-25T05:46:16.076Z,99.20
2018-08-25T05:48:44.569Z,99.50
2018-08-25T05:51:12.942Z,99.50
2018-08-25T05:53:41.323Z,99.10
2018-08-25T05:56:20.982Z,99.00
2018-08-25T05:58:59.391Z,99.40
2018-08-25T06:01:34.001Z,99.10
2018-08-25T06:04:12.089Z,98.60
2018-08-25T06:06:44.136Z,98.50
2018-08-25T06:09:13.857Z,98.40
2018-08-25T06:11:50.778Z,98.60
2018-08-25T06:14:31.264Z,97.90
2018-08-25T06:17:00.059Z,97.60
2018-08-25T06:19:36.356Z,97.90
2018-08-25T06:26:54.807Z,98.10
2018-08-25T06:29:23.163Z,97.50
2018-08-25T06:31:51.583Z,97.90
2018-08-25T06:34:21.325Z,98.30
2018-08-25T06:36:58.758Z,98.30
2018-08-25T06:39:27.837Z,98.10
2018-08-25T06:41:56.220Z,97.80
2018-08-25T06:44:24.708Z,97.00
2018-08-25T06:46:53.199Z,98.00
2018-08-25T06:49:21.543Z,98.10
2018-08-25T06:51:50.532Z,98.70
2018-08-25T06:54:19.121Z,98.90
2018-08-25T06:56:47.500Z,98.40
2018-08-25T06:59:16.553Z,97.50
2018-08-25T07:01:45.473Z,98.40
2018-08-25T07:04:13.860Z,98.80
2018-08-25T07:06:42.620Z,97.10
2018-08-25T07:09:12.467Z,96.50
2018-08-25T07:11:41.702Z,96.50
2018-08-25T07:14:10.745Z,95.80
2018-08-25T07:16:39.906Z,95.90
2018-08-25T07:19:08.332Z,95.60
2018-08-25T07:21:37.183Z,95.90
2018-08-25T07:24:05.751Z,94.80
2018-08-25T07:26:34.392Z,94.10
2018-08-25T07:29:03.142Z,94.50
2018-08-25T07:31:31.561Z,95.00
2018-08-25T07:33:59.934Z,94.90
2018-08-25T07:36:28.327Z,94.70
2018-08-25T07:38:58.137Z,94.60
2018-08-25T07:41:26.533Z,94.30
2018-08-25T07:43:55.005Z,93.90
2018-08-25T07:46:30.911Z,94.10
2018-08-25T07:48:59.560Z,94.30
2018-08-25T07:52:44.156Z,94.40
2018-08-25T07:55:12.925Z,94.60
2018-08-25T07:57:41.391Z,93.30
2018-08-25T08:00:10.024Z,93.80
2018-08-25T08:02:38.658Z,92.90
2018-08-25T08:05:07.195Z,92.40
2018-08-25T08:07:35.611Z,91.80
2018-08-25T08:10:04.335Z,91.30
2018-08-25T08:12:32.788Z,93.10
2018-08-25T08:15:01.941Z,93.40
2018-08-25T08:17:30.335Z,93.40
2018-08-25T08:19:58.900Z,93.40
2018-08-25T08:22:27.291Z,94.60
2018-08-25T08:24:55.681Z,95.90
2018-08-25T08:27:24.280Z,96.40
2018-08-25T08:29:52.671Z,97.00
2018-08-25T08:32:21.456Z,95.60
2018-08-25T08:34:49.907Z,96.20
2018-08-25T08:37:18.372Z,95.50
2018-08-25T08:39:47.157Z,95.10
2018-08-25T08:42:15.840Z,95.20
2018-08-25T08:44:44.210Z,94.10
2018-08-25T08:47:12.577Z,93.90
2018-08-25T08:49:47.335Z,94.00
2018-08-25T08:52:12.215Z,93.60
2018-08-25T08:54:40.642Z,91.70
2018-08-25T08:57:09.144Z,91.50
2018-08-25T08:59:37.796Z,91.90
2018-08-25T09:02:07.000Z,92.00
2018-08-25T09:04:35.793Z,90.90
2018-08-25T09:07:05.603Z,91.90
2018-08-25T09:09:36.773Z,91.70
2018-08-25T09:12:05.171Z,91.90
2018-08-25T09:14:35.561Z,91.60
2018-08-25T09:17:05.349Z,91.20
2018-08-25T09:19:34.897Z,90.20
2018-08-25T09:22:03.570Z,88.90
2018-08-25T09:24:32.380Z,90.70
2018-08-25T09:27:00.903Z,90.50
2018-08-25T09:29:29.332Z,84.20
2018-08-25T09:31:57.611Z,88.30
2018-08-25T09:34:25.964Z,87.10
2018-08-25T09:36:54.517Z,81.10
2018-08-25T09:39:22.770Z,86.00
2018-08-25T09:41:51.170Z,84.90
2018-08-25T09:44:19.392Z,84.50
2018-08-25T09:46:47.788Z,81.00
2018-08-25T09:49:17.062Z,80.40
2018-08-25T09:51:45.469Z,82.50
2018-08-25T09:54:13.820Z,83.30
2018-08-25T09:56:42.345Z,84.30
2018-08-25T09:59:10.803Z,81.90
2018-08-25T10:01:44.837Z,83.20
2018-08-25T10:04:13.287Z,83.80
2018-08-25T10:06:41.697Z,84.00
2018-08-25T10:09:10.071Z,83.00
2018-08-25T10:11:40.714Z,85.50
2018-08-25T10:14:09.131Z,84.30
2018-08-25T10:16:37.547Z,86.80
2018-08-25T10:19:05.980Z,90.00
2018-08-25T10:21:42.727Z,86.60
2018-08-25T10:24:11.117Z,89.20
2018-08-25T10:26:39.848Z,93.20
2018-08-25T10:29:08.375Z,92.80
2018-08-25T10:31:36.698Z,94.20
2018-08-25T10:34:05.016Z,93.40
2018-08-25T10:36:33.395Z,93.10
2018-08-25T10:39:01.952Z,94.10
2018-08-25T10:41:30.348Z,93.30
2018-08-25T10:43:58.741Z,94.70
2018-08-25T10:46:27.091Z,94.00
2018-08-25T10:48:55.501Z,93.30
2018-08-25T10:51:23.884Z,92.40
2018-08-25T10:53:52.373Z,91.00
2018-08-25T10:56:20.731Z,92.20
2018-08-25T10:58:49.283Z,90.40
2018-08-25T11:01:20.878Z,91.00
2018-08-25T11:03:49.460Z,90.70
2018-08-25T11:06:17.792Z,90.00
2018-08-25T11:08:46.216Z,90.80
2018-08-25T11:11:14.529Z,90.60
2018-08-25T11:13:43.011Z,90.90
2018-08-25T11:16:11.364Z,91.10
2018-08-25T11:18:40.127Z,90.80
2018-08-25T11:21:08.522Z,87.00
2018-08-25T11:23:36.869Z,88.90
2018-08-25T11:26:05.384Z,87.40
2018-08-25T11:28:33.798Z,90.20
2018-08-25T11:31:02.313Z,91.10
2018-08-25T11:33:32.196Z,91.00
2018-08-25T11:36:01.469Z,90.70
2018-08-25T11:38:29.884Z,91.40
2018-08-25T11:40:58.747Z,89.50
2018-08-25T11:43:27.247Z,90.10
2018-08-25T11:45:55.599Z,89.90
2018-08-25T11:48:24.105Z,89.40
2018-08-25T11:50:52.504Z,84.20
2018-08-25T11:53:20.878Z,84.80
2018-08-25T11:55:49.267Z,83.80
2018-08-25T11:58:18.128Z,82.50
2018-08-25T12:00:46.551Z,77.40
2018-08-25T12:03:14.860Z,77.50
2018-08-25T12:05:43.331Z,83.10
2018-08-25T12:08:11.845Z,82.70
2018-08-25T12:10:40.475Z,90.50
2018-08-25T12:13:08.806Z,90.60
2018-08-25T12:15:39.989Z,90.30
2018-08-25T12:18:12.520Z,91.20
2018-08-25T12:20:52.174Z,86.00
2018-08-25T12:23:23.019Z,88.60
2018-08-25T12:25:52.187Z,87.70
2018-08-25T12:28:29.082Z,88.20
2018-08-25T12:31:05.263Z,86.30
2018-08-25T12:33:36.569Z,84.80
2018-08-25T12:36:17.052Z,84.70
2018-08-25T12:38:45.376Z,82.00
2018-08-25T12:41:13.751Z,84.20
2018-08-25T12:43:46.954Z,81.20
2018-08-25T12:46:15.543Z,80.60
2018-08-25T12:48:55.711Z,82.10
2018-08-25T12:51:23.938Z,80.80
2018-08-25T12:53:52.325Z,79.70
2018-08-25T12:56:34.356Z,81.00
2018-08-25T12:59:02.744Z,81.40
2018-08-25T13:01:31.277Z,85.00
2018-08-25T13:03:59.610Z,82.50
2018-08-25T13:06:29.253Z,79.80
2018-08-25T13:08:57.642Z,81.00
2018-08-25T13:11:25.979Z,81.60
2018-08-25T13:13:54.301Z,82.00
2018-08-25T13:16:25.597Z,78.90
2018-08-25T13:18:55.080Z,80.70
2018-08-25T13:21:23.266Z,76.70
2018-08-25T13:23:53.972Z,74.00
2018-08-25T13:26:22.295Z,75.80
2018-08-25T13:28:54.026Z,78.00
2018-08-25T13:31:23.152Z,77.50
2018-08-25T13:33:51.487Z,80.00
2018-08-25T13:36:19.980Z,81.40
2018-08-25T13:38:48.659Z,80.60
2018-08-25T13:41:18.028Z,83.80
2018-08-25T13:43:46.392Z,80.00
2018-08-25T13:46:14.992Z,76.10
2018-08-25T13:48:43.427Z,75.80
2018-08-25T13:51:12.575Z,70.70
2018-08-25T13:53:41.152Z,68.40
2018-08-25T13:56:10.111Z,66.80
2018-08-25T13:58:38.809Z,68.10
2018-08-25T14:01:07.167Z,65.60
2018-08-25T14:03:35.519Z,67.40
2018-08-25T14:06:34.203Z,69.10
2018-08-25T14:09:03.491Z,72.50
2018-08-25T14:11:32.151Z,75.00
2018-08-25T14:14:03.148Z,79.50
2018-08-25T14:16:31.647Z,80.10
2018-08-25T14:19:00.336Z,76.60
2018-08-25T14:21:28.883Z,73.10
2018-08-25T14:23:57.272Z,75.30
2018-08-25T14:26:26.204Z,73.20
2018-08-25T14:28:57.018Z,74.90
2018-08-25T14:31:32.563Z,70.00
2018-08-25T14:34:01.904Z,69.00
2018-08-25T14:36:31.302Z,70.70
2018-08-25T14:38:59.927Z,67.00
2018-08-25T14:41:28.287Z,67.50
2018-08-25T14:43:56.613Z,67.70
2018-08-25T14:46:25.035Z,68.00
2018-08-25T14:48:53.668Z,71.50
2018-08-25T14:51:22.031Z,71.70
2018-08-25T14:53:50.484Z,73.30
2018-08-25T14:56:18.932Z,77.10
2018-08-25T14:58:49.018Z,80.60
2018-08-25T15:01:17.454Z,79.10
2018-08-25T15:03:46.084Z,81.80
2018-08-25T15:06:14.619Z,78.40
2018-08-25T15:08:43.044Z,76.40
2018-08-25T15:11:11.578Z,76.50
2018-08-25T15:13:40.159Z,74.90
2018-08-25T15:16:08.605Z,72.30
2018-08-25T15:18:37.654Z,70.90
2018-08-25T15:21:05.948Z,70.60
2018-08-25T15:23:34.425Z,72.60
2018-08-25T15:26:03.603Z,72.00
2018-08-25T15:28:31.973Z,69.00
2018-08-25T15:31:00.337Z,68.70
2018-08-25T15:33:28.833Z,68.80
2018-08-25T15:35:57.139Z,64.60
2018-08-25T15:38:31.315Z,66.00
2018-08-25T15:40:59.687Z,67.70
2018-08-25T15:43:28.080Z,66.10
2018-08-25T15:45:56.497Z,66.10
2018-08-25T15:48:25.483Z,60.90
2018-08-25T15:50:54.224Z,59.20
2018-08-25T15:53:23.157Z,56.00
2018-08-25T15:56:08.048Z,53.70
2018-08-25T15:58:36.811Z,55.10
2018-08-25T16:01:05.256Z,58.80
2018-08-25T16:03:33.788Z,62.50
2018-08-25T16:06:02.272Z,57.20
2018-08-25T16:08:30.629Z,54.30
2018-08-25T16:11:01.925Z,55.20
2018-08-25T16:13:30.460Z,55.50
2018-08-25T16:15:58.855Z,53.30
2018-08-25T16:18:27.380Z,53.70
2018-08-25T16:20:56.453Z,53.40
2018-08-25T16:23:24.863Z,58.20
2018-08-25T16:25:53.173Z,61.80
2018-08-25T16:28:21.510Z,61.10
2018-08-25T16:30:50.822Z,56.20
2018-08-25T16:33:19.506Z,55.20
2018-08-25T16:35:47.899Z,57.70
2018-08-25T16:38:17.795Z,54.30
2018-08-25T16:40:46.233Z,54.80
2018-08-25T16:43:14.593Z,56.10
2018-08-25T16:45:43.085Z,60.30
2018-08-25T16:48:11.455Z,61.80
2018-08-25T16:50:39.957Z,63.50
2018-08-25T16:53:15.023Z,65.90
2018-08-25T16:55:44.402Z,66.50
2018-08-25T16:58:12.857Z,67.60
2018-08-25T17:00:41.389Z,69.40
2018-08-25T17:03:10.413Z,69.00
2018-08-25T17:05:40.117Z,69.90
2018-08-25T17:08:08.649Z,66.80
2018-08-25T17:10:37.261Z,68.40
2018-08-25T17:13:05.655Z,70.40
2018-08-25T17:15:34.354Z,68.50
2018-08-25T17:18:05.696Z,70.90
2018-08-25T17:20:34.588Z,72.50
2018-08-25T17:23:03.967Z,70.20
2018-08-25T17:25:33.494Z,68.80
2018-08-25T17:28:12.353Z,69.40
2018-08-25T17:30:41.259Z,68.40
2018-08-25T17:33:10.599Z,72.00
2018-08-25T17:36:42.134Z,68.90
2018-08-25T17:42:35.333Z,69.50
2018-08-25T17:45:05.008Z,69.20
2018-08-25T17:47:43.402Z,69.90
2018-08-25T17:50:12.067Z,72.70
2018-08-25T17:52:50.459Z,72.00
2018-08-25T17:55:43.643Z,73.80
2018-08-25T17:58:17.301Z,73.10
2018-08-25T18:00:58.548Z,75.20
2018-08-25T18:07:18.039Z,76.90
2018-08-25T18:09:47.538Z,77.30
2018-08-25T18:12:31.227Z,77.10
2018-08-25T18:14:59.886Z,78.90
2018-08-25T18:17:31.400Z,80.90
2018-08-25T18:27:55.668Z,80.90
2018-08-25T18:30:25.332Z,82.30
2018-08-25T18:32:53.786Z,80.60
2018-08-25T18:35:23.496Z,83.60
2018-08-25T18:37:53.112Z,81.10
2018-08-25T18:40:21.860Z,82.10
2018-08-25T18:42:50.485Z,81.80
2018-08-25T18:45:19.155Z,83.10
2018-08-25T18:47:48.133Z,82.60
2018-08-25T18:50:16.908Z,83.50
2018-08-25T18:52:46.389Z,80.70
2018-08-25T18:55:15.398Z,83.90
2018-08-25T18:57:44.207Z,83.60
2018-08-25T19:00:14.479Z,82.50
2018-08-25T19:02:42.942Z,80.80
2018-08-25T19:05:11.511Z,83.20
2018-08-25T19:07:39.916Z,82.20
2018-08-25T19:10:08.377Z,82.50
2018-08-25T19:12:43.398Z,81.50
2018-08-25T19:15:19.659Z,81.70
2018-08-25T19:17:48.538Z,81.10
2018-08-25T19:20:19.812Z,81.90
2018-08-25T19:23:03.010Z,83.00
2018-08-25T19:25:33.531Z,83.00
2018-08-25T19:34:53.179Z,82.70
2018-08-25T19:54:04.267Z,87.50
2018-08-25T19:56:33.033Z,88.10
2018-08-25T19:59:01.692Z,89.30
2018-08-25T20:01:32.817Z,87.90
2018-08-25T20:04:03.489Z,86.90
2018-08-25T20:06:41.526Z,88.20
2018-08-25T20:09:10.640Z,89.30
2018-08-25T20:11:39.463Z,90.20
2018-08-25T20:14:08.076Z,90.80
2018-08-25T20:16:36.628Z,91.00
